Time;durP1;ratioP1;P1;durP2;ratioP2;P2;SDS_P1;SDS_P2;PMS_P1;PMS_P2;Temp;Humidity;BMP_temperature;BMP_pressure;BME280_temperature;BME280_humidity;BME280_pressure;Samples;Min_cycle;Max_cycle;Signal;HPM_P1;HPM_P2
2021/07/16 00:00:35;;;;;;;16.33;6.10;;;16.70;99.90;;;;;;5074118;28;20048;-68
2021/07/16 00:03:05;;;;;;;22.30;6.00;;;16.70;99.90;;;;;;5078264;28;20040;-68
2021/07/16 00:05:31;;;;;;;33.75;7.20;;;16.70;99.90;;;;;;5078484;28;20062;-68
2021/07/16 00:07:56;;;;;;;15.50;5.68;;;16.60;99.90;;;;;;5078179;28;20678;-67
2021/07/16 00:10:22;;;;;;;19.92;5.70;;;16.60;99.90;;;;;;5076885;28;20044;-68
2021/07/16 00:12:50;;;;;;;20.92;5.50;;;16.70;99.90;;;;;;5078905;28;20048;-68
2021/07/16 00:15:18;;;;;;;22.65;6.85;;;16.60;99.90;;;;;;5081638;28;20044;-68
2021/07/16 00:17:44;;;;;;;25.30;7.03;;;16.60;99.90;;;;;;5076385;28;20032;-68
2021/07/16 00:20:10;;;;;;;19.10;4.97;;;16.60;99.90;;;;;;5077289;28;21363;-68
2021/07/16 00:22:37;;;;;;;22.42;5.43;;;16.60;99.90;;;;;;5060625;28;20040;-68
2021/07/16 00:25:05;;;;;;;20.58;6.72;;;16.60;99.90;;;;;;5076766;28;20049;-68
2021/07/16 00:27:31;;;;;;;14.65;5.05;;;16.60;99.90;;;;;;5076749;28;20047;-68
2021/07/16 00:29:57;;;;;;;20.58;5.63;;;16.60;99.90;;;;;;5078469;28;20048;-68
2021/07/16 00:32:22;;;;;;;20.27;5.32;;;16.50;99.90;;;;;;5077813;28;20337;-67
2021/07/16 00:34:48;;;;;;;26.08;6.10;;;16.50;99.90;;;;;;5079850;28;20153;-68
2021/07/16 00:37:15;;;;;;;19.23;5.45;;;16.50;99.90;;;;;;5078349;28;20067;-67
2021/07/16 00:39:41;;;;;;;22.13;5.50;;;16.50;99.90;;;;;;5075976;28;20126;-68
2021/07/16 00:42:06;;;;;;;20.17;5.72;;;16.50;99.90;;;;;;5076065;28;20397;-67
2021/07/16 00:44:35;;;;;;;21.50;6.05;;;16.50;99.90;;;;;;5078781;28;20044;-68
2021/07/16 00:47:01;;;;;;;22.63;5.75;;;16.40;99.90;;;;;;5079351;28;20060;-68
2021/07/16 00:49:28;;;;;;;22.60;5.95;;;16.50;99.90;;;;;;5075483;28;20031;-67
2021/07/16 00:51:54;;;;;;;14.60;4.70;;;16.40;99.90;;;;;;5076694;28;20043;-68
2021/07/16 00:54:20;;;;;;;16.63;5.30;;;16.40;99.90;;;;;;5077964;28;20040;-67
2021/07/16 00:56:46;;;;;;;20.30;5.95;;;16.40;99.90;;;;;;5079186;28;20036;-67
2021/07/16 00:59:14;;;;;;;21.52;5.35;;;16.40;99.90;;;;;;5076580;28;20093;-67
2021/07/16 01:01:42;;;;;;;16.13;4.45;;;16.40;99.90;;;;;;5078221;28;20048;-67
2021/07/16 01:04:08;;;;;;;19.77;5.00;;;16.40;99.90;;;;;;5078637;28;20389;-67
2021/07/16 01:06:34;;;;;;;18.90;5.65;;;16.40;99.90;;;;;;5078117;28;20036;-67
2021/07/16 01:09:00;;;;;;;20.95;5.43;;;16.40;99.90;;;;;;5077262;28;20141;-68
2021/07/16 01:11:26;;;;;;;28.75;5.30;;;16.40;99.90;;;;;;5074863;28;20489;-68
2021/07/16 01:13:53;;;;;;;15.88;4.78;;;16.40;99.90;;;;;;5077733;28;20069;-68
2021/07/16 01:16:19;;;;;;;18.33;5.53;;;16.30;99.90;;;;;;5079075;28;20044;-67
2021/07/16 01:18:45;;;;;;;22.88;6.22;;;16.30;99.90;;;;;;5073262;28;20044;-67
2021/07/16 01:21:12;;;;;;;17.90;5.45;;;16.30;99.90;;;;;;5077290;28;20036;-67
2021/07/16 01:23:40;;;;;;;17.95;5.30;;;16.30;99.90;;;;;;5077408;28;20043;-68
2021/07/16 01:26:06;;;;;;;15.75;5.20;;;16.30;99.90;;;;;;5079339;28;20612;-67
2021/07/16 01:28:35;;;;;;;23.42;5.88;;;16.30;99.90;;;;;;5073803;28;20055;-67
2021/07/16 01:31:00;;;;;;;19.67;5.13;;;16.30;99.90;;;;;;5075144;28;20154;-67
2021/07/16 01:33:27;;;;;;;26.65;7.35;;;16.30;99.90;;;;;;5076852;28;20474;-68
2021/07/16 01:35:52;;;;;;;17.73;5.57;;;16.30;99.90;;;;;;5075690;28;20039;-67
2021/07/16 01:38:18;;;;;;;23.25;5.63;;;16.20;99.90;;;;;;5072634;28;20032;-67
2021/07/16 01:40:44;;;;;;;28.90;5.65;;;16.20;99.90;;;;;;5075668;28;20044;-67
2021/07/16 01:43:11;;;;;;;26.05;5.97;;;16.20;99.90;;;;;;5076141;28;20157;-67
2021/07/16 01:45:38;;;;;;;18.50;4.88;;;16.20;99.90;;;;;;5076997;28;20056;-68
2021/07/16 01:48:07;;;;;;;22.20;5.32;;;16.20;99.90;;;;;;5061685;28;20124;-68
2021/07/16 01:50:34;;;;;;;25.58;6.18;;;16.30;99.90;;;;;;5077097;28;20510;-67
2021/07/16 01:53:01;;;;;;;18.63;5.18;;;16.20;99.90;;;;;;5076694;28;20439;-67
2021/07/16 01:55:30;;;;;;;21.40;5.40;;;16.20;99.90;;;;;;5075069;28;20389;-67
2021/07/16 01:57:58;;;;;;;17.58;4.72;;;16.20;99.90;;;;;;5075838;28;20097;-67
2021/07/16 02:00:33;;;;;;;20.65;4.88;;;16.20;99.90;;;;;;5075581;28;20122;-67
2021/07/16 02:03:01;;;;;;;24.08;5.82;;;16.20;99.90;;;;;;5077163;28;20055;-68
2021/07/16 02:05:28;;;;;;;26.38;5.05;;;16.20;99.90;;;;;;5075281;28;20040;-67
2021/07/16 02:08:02;;;;;;;21.52;4.40;;;16.10;99.90;;;;;;5075339;28;20149;-67
2021/07/16 02:10:29;;;;;;;19.63;5.30;;;16.10;99.90;;;;;;5075616;28;20036;-67
2021/07/16 02:12:56;;;;;;;18.70;4.93;;;16.10;99.90;;;;;;5079022;28;20927;-67
2021/07/16 02:15:29;;;;;;;22.45;5.20;;;16.10;99.90;;;;;;5076009;28;20052;-67
2021/07/16 02:17:56;;;;;;;20.17;4.75;;;16.10;99.90;;;;;;5076677;28;20040;-68
2021/07/16 02:20:34;;;;;;;22.27;6.05;;;16.10;99.90;;;;;;5057097;28;20493;-68
2021/07/16 02:23:10;;;;;;;24.52;4.90;;;16.10;99.90;;;;;;5076032;28;20032;-68
2021/07/16 02:25:36;;;;;;;24.80;5.97;;;16.10;99.90;;;;;;5062117;28;20487;-67
2021/07/16 02:28:06;;;;;;;21.90;4.55;;;16.20;99.90;;;;;;5079892;28;20089;-67
2021/07/16 02:30:32;;;;;;;21.50;5.20;;;16.10;99.90;;;;;;5078159;28;20110;-68
2021/07/16 02:32:59;;;;;;;25.20;5.78;;;16.10;99.90;;;;;;5081298;28;20036;-68
2021/07/16 02:35:27;;;;;;;23.98;4.60;;;16.00;99.90;;;;;;5078726;28;20521;-68
2021/07/16 02:37:52;;;;;;;24.00;5.57;;;16.00;99.90;;;;;;5078229;28;20040;-67
2021/07/16 02:40:19;;;;;;;24.40;4.65;;;16.00;99.90;;;;;;5077215;28;20432;-67
2021/07/16 02:42:45;;;;;;;23.25;4.93;;;16.00;99.90;;;;;;5078750;28;20036;-68
2021/07/16 02:45:16;;;;;;;23.00;5.95;;;16.00;99.90;;;;;;5082488;28;20118;-67
2021/07/16 02:47:42;;;;;;;23.23;4.85;;;16.00;99.90;;;;;;5083062;28;20046;-67
2021/07/16 02:50:11;;;;;;;20.52;5.80;;;16.00;99.90;;;;;;5079695;28;20093;-68
2021/07/16 02:52:37;;;;;;;17.55;3.90;;;16.00;99.90;;;;;;5084550;28;20109;-67
2021/07/16 02:55:04;;;;;;;25.17;4.95;;;16.00;99.90;;;;;;5085283;28;20453;-67
2021/07/16 02:57:29;;;;;;;21.85;5.22;;;16.00;99.90;;;;;;5084335;28;20036;-67
2021/07/16 02:59:55;;;;;;;23.23;4.30;;;15.90;99.90;;;;;;5081675;28;20393;-67
2021/07/16 03:02:21;;;;;;;21.27;4.07;;;16.00;99.90;;;;;;5084351;28;20474;-67
2021/07/16 03:04:49;;;;;;;24.25;4.70;;;16.00;99.90;;;;;;5084528;28;20824;-67
2021/07/16 03:07:16;;;;;;;20.35;4.78;;;16.00;99.90;;;;;;5086142;28;20119;-67
2021/07/16 03:09:42;;;;;;;19.38;5.25;;;16.00;99.90;;;;;;5079672;28;20098;-67
2021/07/16 03:12:08;;;;;;;19.40;4.30;;;15.90;99.90;;;;;;5087212;28;20454;-67
2021/07/16 03:14:33;;;;;;;21.77;4.60;;;15.90;99.90;;;;;;5084449;28;20056;-68
2021/07/16 03:17:00;;;;;;;21.90;5.47;;;15.90;99.90;;;;;;5084287;28;20040;-67
2021/07/16 03:19:25;;;;;;;21.80;4.75;;;15.90;99.90;;;;;;5079619;28;20036;-67
2021/07/16 03:21:51;;;;;;;19.00;4.72;;;15.90;99.90;;;;;;5083253;28;20040;-67
2021/07/16 03:24:18;;;;;;;23.35;4.22;;;15.90;99.90;;;;;;5086244;28;20401;-68
2021/07/16 03:26:44;;;;;;;26.23;5.40;;;15.90;99.90;;;;;;5083994;28;20044;-67
2021/07/16 03:29:09;;;;;;;21.98;5.35;;;15.90;99.90;;;;;;5080531;28;20037;-67
2021/07/16 03:31:35;;;;;;;30.40;6.80;;;15.90;99.90;;;;;;5085484;28;20405;-67
2021/07/16 03:34:00;;;;;;;21.77;4.78;;;15.80;99.90;;;;;;5085264;28;20044;-67
2021/07/16 03:36:26;;;;;;;21.77;5.18;;;15.90;99.90;;;;;;5082222;28;20074;-67
2021/07/16 03:38:52;;;;;;;18.92;5.00;;;15.90;99.90;;;;;;5081163;28;20048;-68
2021/07/16 03:41:18;;;;;;;24.17;5.15;;;15.90;99.90;;;;;;5086835;28;20039;-68
2021/07/16 03:43:44;;;;;;;19.58;5.00;;;15.80;99.90;;;;;;5083577;28;20152;-67
2021/07/16 03:46:10;;;;;;;20.90;4.65;;;15.90;99.90;;;;;;5084963;28;20138;-67
2021/07/16 03:48:36;;;;;;;26.67;5.05;;;15.80;99.90;;;;;;5080590;28;20101;-68
2021/07/16 03:51:01;;;;;;;24.83;4.90;;;15.90;99.90;;;;;;5083222;28;20044;-68
2021/07/16 03:53:27;;;;;;;26.27;5.22;;;15.90;99.90;;;;;;5081710;28;20048;-67
2021/07/16 03:55:53;;;;;;;27.95;4.88;;;15.80;99.90;;;;;;5084393;28;20054;-68
2021/07/16 03:58:18;;;;;;;20.70;4.32;;;15.90;99.90;;;;;;5082495;28;20490;-67
2021/07/16 04:00:44;;;;;;;29.38;3.97;;;15.90;99.90;;;;;;5080822;28;20043;-67
2021/07/16 04:03:10;;;;;;;18.67;4.20;;;15.90;99.90;;;;;;5083804;28;20133;-67
2021/07/16 04:05:37;;;;;;;26.23;4.97;;;15.90;99.90;;;;;;5082075;28;20040;-68
2021/07/16 04:08:04;;;;;;;19.35;5.40;;;15.90;99.90;;;;;;5082778;28;20243;-67
2021/07/16 04:10:35;;;;;;;19.95;4.20;;;15.90;99.90;;;;;;5079347;28;20067;-67
2021/07/16 04:13:04;;;;;;;22.73;4.32;;;15.90;99.90;;;;;;5084827;28;20101;-67
2021/07/16 04:15:30;;;;;;;22.48;4.97;;;15.90;99.90;;;;;;5084276;28;20044;-67
2021/07/16 04:17:58;;;;;;;20.70;5.18;;;15.90;99.90;;;;;;5080694;28;20044;-68
2021/07/16 04:20:26;;;;;;;26.77;6.03;;;16.00;99.90;;;;;;5081185;28;20123;-68
2021/07/16 04:22:52;;;;;;;19.00;4.43;;;15.90;99.90;;;;;;5081362;28;20052;-67
2021/07/16 04:25:18;;;;;;;23.40;5.20;;;15.90;99.90;;;;;;5086146;28;20097;-68
2021/07/16 04:27:46;;;;;;;23.65;6.03;;;15.90;99.90;;;;;;5081890;28;20104;-68
2021/07/16 04:30:13;;;;;;;25.25;4.50;;;16.00;99.90;;;;;;5082186;28;20485;-68
2021/07/16 04:32:40;;;;;;;28.35;5.13;;;16.00;99.90;;;;;;5082403;28;20119;-68
2021/07/16 04:35:07;;;;;;;25.88;4.82;;;16.00;99.90;;;;;;5081734;28;20028;-67
2021/07/16 04:37:35;;;;;;;25.27;5.05;;;16.00;99.90;;;;;;5082670;28;20043;-68
2021/07/16 04:40:03;;;;;;;24.88;5.22;;;16.00;99.90;;;;;;5079967;28;20040;-68
2021/07/16 04:42:32;;;;;;;27.73;5.18;;;16.00;99.90;;;;;;5082145;28;20039;-68
2021/07/16 04:44:57;;;;;;;27.35;5.32;;;16.10;99.90;;;;;;5082214;28;20048;-68
2021/07/16 04:47:24;;;;;;;29.38;6.07;;;16.10;99.90;;;;;;5082972;28;20482;-67
2021/07/16 04:49:50;;;;;;;21.20;4.38;;;16.10;99.90;;;;;;5078284;28;20036;-68
2021/07/16 04:52:15;;;;;;;27.02;5.03;;;16.10;99.90;;;;;;5084435;28;20467;-67
2021/07/16 04:54:41;;;;;;;29.23;4.68;;;16.10;99.90;;;;;;5081852;28;20044;-68
2021/07/16 04:57:08;;;;;;;25.38;5.00;;;16.10;99.90;;;;;;5085276;28;20695;-68
2021/07/16 04:59:35;;;;;;;33.97;6.55;;;16.10;99.90;;;;;;5078968;28;20432;-67
2021/07/16 05:02:07;;;;;;;19.85;5.20;;;16.10;99.90;;;;;;5064668;28;20035;-68
2021/07/16 05:04:34;;;;;;;24.55;5.93;;;16.10;99.90;;;;;;5083176;28;20046;-68
2021/07/16 05:07:00;;;;;;;28.60;4.68;;;16.10;99.90;;;;;;5080925;28;20390;-69
2021/07/16 05:09:25;;;;;;;23.80;4.45;;;16.10;99.90;;;;;;5077241;28;20111;-68
2021/07/16 05:11:52;;;;;;;29.13;5.93;;;16.20;99.90;;;;;;5083616;28;20044;-68
2021/07/16 05:14:18;;;;;;;24.02;5.72;;;16.20;99.90;;;;;;5079716;28;20052;-68
2021/07/16 05:16:44;;;;;;;25.67;5.32;;;16.20;99.90;;;;;;5078857;28;20036;-68
2021/07/16 05:19:11;;;;;;;28.65;5.13;;;16.20;99.90;;;;;;5079929;28;20102;-67
2021/07/16 05:21:37;;;;;;;26.90;5.57;;;16.20;99.90;;;;;;5063832;28;20071;-68
2021/07/16 05:24:04;;;;;;;23.25;5.38;;;16.20;99.90;;;;;;5081201;28;20112;-68
2021/07/16 05:26:31;;;;;;;32.53;6.20;;;16.20;99.90;;;;;;5080044;28;20048;-68
2021/07/16 05:28:57;;;;;;;21.90;4.68;;;16.20;99.90;;;;;;5079254;28;20402;-68
2021/07/16 05:31:23;;;;;;;24.42;4.93;;;16.20;99.90;;;;;;5094216;27;20174;-68
2021/07/16 05:33:49;;;;;;;32.83;5.60;;;16.20;99.90;;;;;;5079004;28;20036;-67
2021/07/16 05:36:15;;;;;;;29.17;5.15;;;16.30;99.90;;;;;;5082431;28;20051;-68
2021/07/16 05:38:40;;;;;;;23.23;5.40;;;16.30;99.90;;;;;;5078175;28;20048;-68
2021/07/16 05:41:07;;;;;;;27.95;5.45;;;16.30;99.90;;;;;;5081748;28;20386;-68
2021/07/16 05:43:34;;;;;;;32.83;5.55;;;16.30;99.90;;;;;;5079886;28;20040;-68
2021/07/16 05:46:02;;;;;;;33.50;5.47;;;16.40;99.90;;;;;;5083102;28;20048;-68
2021/07/16 05:48:31;;;;;;;29.63;5.65;;;16.40;99.90;;;;;;5075202;28;20432;-68
2021/07/16 05:50:57;;;;;;;28.00;7.50;;;16.40;99.90;;;;;;5059827;28;20032;-68
2021/07/16 05:53:23;;;;;;;31.13;5.13;;;16.40;99.90;;;;;;5075153;28;20139;-68
2021/07/16 05:55:49;;;;;;;27.33;4.85;;;16.50;99.90;;;;;;5080729;28;20609;-68
2021/07/16 05:58:14;;;;;;;35.83;5.57;;;16.60;99.90;;;;;;5079305;28;20027;-67
2021/07/16 06:00:40;;;;;;;36.33;6.85;;;16.60;99.90;;;;;;5079005;28;20063;-68
2021/07/16 06:03:06;;;;;;;29.85;6.18;;;16.70;99.90;;;;;;5080397;28;20454;-68
2021/07/16 06:05:33;;;;;;;27.90;5.20;;;16.80;99.90;;;;;;5078297;28;20043;-68
2021/07/16 06:07:59;;;;;;;28.98;6.20;;;16.90;99.90;;;;;;5078019;28;20093;-67
2021/07/16 06:10:25;;;;;;;30.75;5.53;;;16.90;99.90;;;;;;5075883;28;20040;-68
2021/07/16 06:12:51;;;;;;;22.83;4.70;;;17.00;99.90;;;;;;5076912;28;20583;-68
2021/07/16 06:15:17;;;;;;;27.70;6.13;;;17.00;99.90;;;;;;5077629;28;20045;-68
2021/07/16 06:17:43;;;;;;;23.05;4.88;;;17.00;99.90;;;;;;5073149;28;20040;-68
2021/07/16 06:20:13;;;;;;;30.70;6.25;;;17.00;99.90;;;;;;5080192;28;20035;-67
2021/07/16 06:22:39;;;;;;;29.83;5.43;;;17.00;99.90;;;;;;5084839;28;20474;-68
2021/07/16 06:25:06;;;;;;;30.48;5.55;;;17.00;99.90;;;;;;5084303;28;20051;-68
2021/07/16 06:27:32;;;;;;;29.60;6.30;;;17.00;99.90;;;;;;5081736;28;20044;-68
2021/07/16 06:29:58;;;;;;;33.30;6.00;;;16.90;99.90;;;;;;5081909;28;20040;-68
2021/07/16 06:32:24;;;;;;;28.80;6.88;;;16.90;99.90;;;;;;5077904;28;20043;-68
2021/07/16 06:34:50;;;;;;;26.88;5.40;;;16.90;99.90;;;;;;5079853;28;20050;-68
2021/07/16 06:37:16;;;;;;;28.65;6.05;;;17.00;99.90;;;;;;5079149;28;20054;-68
2021/07/16 06:39:42;;;;;;;38.50;6.00;;;16.90;99.90;;;;;;5079640;28;21643;-67
2021/07/16 06:42:08;;;;;;;32.38;6.55;;;16.90;99.90;;;;;;5081164;28;20051;-68
2021/07/16 06:44:34;;;;;;;22.55;4.68;;;16.90;99.90;;;;;;5080142;28;20633;-68
2021/07/16 06:47:01;;;;;;;29.40;7.10;;;16.90;99.90;;;;;;5075052;28;20031;-68
2021/07/16 06:49:26;;;;;;;24.80;5.38;;;17.00;99.90;;;;;;5073511;28;20043;-68
2021/07/16 06:51:56;;;;;;;21.35;5.20;;;17.10;99.90;;;;;;5079460;28;20074;-68
2021/07/16 06:54:27;;;;;;;25.80;5.00;;;17.10;99.90;;;;;;5082906;28;20051;-68
2021/07/16 06:56:54;;;;;;;24.65;4.82;;;17.10;99.90;;;;;;5079742;28;20139;-68
2021/07/16 06:59:20;;;;;;;34.08;7.15;;;17.20;99.90;;;;;;5072851;28;20044;-67
2021/07/16 07:01:47;;;;;;;24.10;5.35;;;17.20;99.90;;;;;;5076968;28;20106;-68
2021/07/16 07:04:13;;;;;;;31.75;6.15;;;17.10;99.90;;;;;;5078151;28;20058;-68
2021/07/16 07:06:38;;;;;;;28.55;5.88;;;17.20;99.90;;;;;;5076016;28;20243;-67
2021/07/16 07:09:05;;;;;;;36.10;6.97;;;17.20;99.90;;;;;;5070966;28;20036;-68
2021/07/16 07:11:30;;;;;;;22.20;4.78;;;17.20;99.90;;;;;;5076841;28;20040;-68
2021/07/16 07:13:56;;;;;;;27.83;5.13;;;17.20;99.90;;;;;;5078105;28;20093;-68
2021/07/16 07:16:22;;;;;;;24.48;5.18;;;17.20;99.90;;;;;;5074878;28;20123;-68
2021/07/16 07:18:48;;;;;;;28.23;5.38;;;17.20;99.90;;;;;;5073918;28;20093;-68
2021/07/16 07:21:15;;;;;;;29.60;6.57;;;17.20;99.90;;;;;;5081137;28;20139;-68
2021/07/16 07:23:41;;;;;;;32.10;5.43;;;17.20;99.90;;;;;;5079224;28;20048;-68
2021/07/16 07:26:08;;;;;;;31.92;5.93;;;17.20;99.90;;;;;;5076614;28;20032;-68
2021/07/16 07:28:34;;;;;;;25.75;5.65;;;17.20;99.90;;;;;;5077812;28;20150;-68
2021/07/16 07:31:00;;;;;;;27.27;5.30;;;17.20;99.90;;;;;;5077825;28;20040;-67
2021/07/16 07:33:26;;;;;;;28.48;5.47;;;17.30;99.90;;;;;;5079411;28;20942;-67
2021/07/16 07:35:52;;;;;;;27.38;6.35;;;17.30;99.90;;;;;;5076729;28;20042;-68
2021/07/16 07:38:18;;;;;;;34.97;7.30;;;17.30;99.90;;;;;;5077067;28;20572;-68
2021/07/16 07:40:44;;;;;;;23.63;5.03;;;17.30;99.90;;;;;;5077286;28;20038;-67
2021/07/16 07:43:10;;;;;;;32.95;5.93;;;17.30;99.90;;;;;;5077958;28;20048;-68
2021/07/16 07:45:35;;;;;;;28.48;6.50;;;17.30;99.90;;;;;;5077678;28;20048;-68
2021/07/16 07:48:02;;;;;;;24.35;4.95;;;17.30;99.90;;;;;;5076782;28;20114;-68
2021/07/16 07:50:28;;;;;;;31.80;6.32;;;17.30;99.90;;;;;;5074942;28;20745;-68
2021/07/16 07:52:54;;;;;;;27.75;5.45;;;17.30;99.90;;;;;;5074998;28;20054;-68
2021/07/16 07:55:23;;;;;;;28.13;5.43;;;17.40;99.90;;;;;;5076159;28;20042;-68
2021/07/16 07:57:51;;;;;;;26.48;6.10;;;17.40;99.90;;;;;;5079976;28;20082;-68
2021/07/16 08:00:20;;;;;;;27.55;6.53;;;17.40;99.90;;;;;;5074347;28;20035;-68
2021/07/16 08:02:46;;;;;;;33.25;5.88;;;17.50;99.90;;;;;;5077730;28;20048;-68
2021/07/16 08:05:13;;;;;;;24.25;5.20;;;17.50;99.90;;;;;;5075602;28;20618;-68
2021/07/16 08:07:39;;;;;;;29.58;5.70;;;17.60;99.90;;;;;;5077028;28;20490;-68
2021/07/16 08:10:10;;;;;;;27.85;5.53;;;17.60;99.90;;;;;;5076309;28;20055;-68
2021/07/16 08:12:37;;;;;;;25.73;5.97;;;17.70;99.90;;;;;;5078589;28;20102;-68
2021/07/16 08:15:04;;;;;;;30.70;5.38;;;17.70;99.90;;;;;;5080155;28;20389;-68
2021/07/16 08:17:30;;;;;;;25.33;6.22;;;17.80;99.90;;;;;;5079949;28;20040;-68
2021/07/16 08:19:55;;;;;;;27.23;5.78;;;17.80;99.90;;;;;;5079656;28;20043;-68
2021/07/16 08:22:22;;;;;;;33.58;5.57;;;17.80;99.90;;;;;;5086456;28;20092;-68
2021/07/16 08:24:48;;;;;;;33.58;6.68;;;17.90;99.90;;;;;;5080237;28;20047;-68
2021/07/16 08:27:14;;;;;;;29.23;5.18;;;17.90;99.90;;;;;;5080797;28;20043;-68
2021/07/16 08:29:40;;;;;;;31.00;6.28;;;18.00;99.90;;;;;;5077212;28;20618;-68
2021/07/16 08:32:07;;;;;;;27.05;5.90;;;18.00;99.90;;;;;;5082950;28;20040;-68
2021/07/16 08:34:32;;;;;;;23.20;5.35;;;18.10;99.90;;;;;;5079313;28;20119;-68
2021/07/16 08:36:58;;;;;;;22.85;5.13;;;18.10;99.90;;;;;;5078707;28;20551;-68
2021/07/16 08:39:24;;;;;;;27.75;6.60;;;18.20;99.90;;;;;;5075480;28;20036;-68
2021/07/16 08:41:51;;;;;;;19.80;4.80;;;18.20;99.90;;;;;;5079014;28;20094;-68
2021/07/16 08:44:17;;;;;;;26.10;5.45;;;18.30;99.90;;;;;;5081516;28;20445;-68
2021/07/16 08:46:47;;;;;;;27.33;6.43;;;18.30;99.90;;;;;;5082983;28;20036;-68
2021/07/16 08:49:15;;;;;;;26.27;5.93;;;18.30;99.90;;;;;;5075869;28;20093;-68
2021/07/16 08:51:42;;;;;;;26.38;5.85;;;18.30;99.90;;;;;;5083737;28;20084;-68
2021/07/16 08:54:13;;;;;;;25.67;6.32;;;18.30;99.90;;;;;;5071241;28;20044;-68
2021/07/16 08:56:39;;;;;;;26.95;5.75;;;18.40;99.90;;;;;;5064208;28;20862;-68
2021/07/16 08:59:06;;;;;;;22.00;6.18;;;18.40;99.90;;;;;;5073130;28;20040;-68
2021/07/16 09:01:32;;;;;;;30.63;5.97;;;18.50;99.90;;;;;;5084735;28;20040;-68
2021/07/16 09:03:59;;;;;;;26.77;6.05;;;18.60;99.90;;;;;;5079278;28;20474;-68
2021/07/16 09:06:54;;;;;;;30.38;6.43;;;18.60;99.90;;;;;;5075808;28;20495;-69
2021/07/16 09:09:20;;;;;;;29.73;6.15;;;18.70;99.90;;;;;;5074329;28;20036;-68
2021/07/16 09:11:49;;;;;;;30.45;5.20;;;18.70;99.90;;;;;;5077532;28;20391;-68
2021/07/16 09:14:33;;;;;;;32.20;7.07;;;18.60;99.90;;;;;;5079045;28;20048;-68
2021/07/16 09:17:14;;;;;;;28.52;6.05;;;18.70;99.90;;;;;;5078613;28;20032;-68
2021/07/16 09:19:41;;;;;;;29.00;6.53;;;18.60;99.90;;;;;;5077522;28;20059;-68
2021/07/16 09:22:16;;;;;;;34.00;7.88;;;18.60;99.90;;;;;;5077109;28;20043;-68
2021/07/16 09:24:53;;;;;;;;;;;18.70;99.90;;;;;;5079890;28;20054;-68
2021/07/16 09:27:28;;;;;;;29.85;6.43;;;18.70;99.90;;;;;;5077940;28;19916;-68
2021/07/16 09:29:53;;;;;;;24.40;5.70;;;18.80;99.90;;;;;;5074271;28;20409;-68
2021/07/16 09:32:19;;;;;;;28.85;6.85;;;18.80;99.90;;;;;;5079295;28;20048;-68
2021/07/16 09:34:51;;;;;;;23.58;6.20;;;18.90;99.90;;;;;;5077558;28;20762;-68
2021/07/16 09:37:17;;;;;;;22.85;5.07;;;18.80;99.90;;;;;;5076158;28;20123;-68
2021/07/16 09:39:49;;;;;;;31.10;5.28;;;18.90;99.90;;;;;;5075908;28;20261;-68
2021/07/16 09:42:15;;;;;;;27.63;6.32;;;18.80;99.90;;;;;;5075821;28;20044;-68
2021/07/16 09:44:41;;;;;;;26.73;6.80;;;18.80;99.90;;;;;;5079243;28;20048;-68
2021/07/16 09:47:13;;;;;;;30.08;6.15;;;18.80;99.90;;;;;;5075504;28;20052;-68
2021/07/16 09:49:40;;;;;;;27.45;5.60;;;18.80;99.90;;;;;;5070874;28;20119;-67
2021/07/16 09:52:15;;;;;;;31.40;7.03;;;18.80;99.90;;;;;;5077550;28;20040;-68
2021/07/16 09:55:08;;;;;;;26.30;5.55;;;18.80;99.90;;;;;;5078981;28;20056;-68
2021/07/16 09:57:52;;;;;;;35.80;6.22;;;18.80;99.90;;;;;;5060329;28;20048;-68
2021/07/16 10:00:21;;;;;;;24.52;5.15;;;18.90;99.90;;;;;;5072377;28;20523;-68
2021/07/16 10:02:52;;;;;;;29.17;6.13;;;18.90;99.90;;;;;;5078247;28;20039;-68
2021/07/16 10:05:18;;;;;;;26.08;6.18;;;19.00;99.90;;;;;;5079348;28;20039;-68
2021/07/16 10:07:46;;;;;;;24.40;5.07;;;19.10;99.90;;;;;;5073292;28;20131;-68
2021/07/16 10:10:14;;;;;;;27.45;6.18;;;19.20;99.90;;;;;;5071187;28;20719;-68
2021/07/16 10:12:42;;;;;;;27.63;6.10;;;19.20;99.90;;;;;;5076818;28;20044;-68
2021/07/16 10:15:14;;;;;;;26.73;5.93;;;19.30;99.90;;;;;;5071985;28;20040;-68
2021/07/16 10:17:40;;;;;;;25.95;5.53;;;19.20;99.90;;;;;;5071846;28;20059;-68
2021/07/16 10:20:17;;;;;;;26.58;5.50;;;19.20;99.90;;;;;;5077597;28;20821;-68
2021/07/16 10:22:45;;;;;;;20.40;5.40;;;19.20;99.90;;;;;;5073115;28;20047;-68
2021/07/16 10:25:18;;;;;;;25.50;6.15;;;19.20;99.90;;;;;;5076732;28;20106;-68
2021/07/16 10:27:45;;;;;;;25.73;6.60;;;19.20;99.90;;;;;;5077454;28;20366;-69
2021/07/16 10:30:13;;;;;;;32.63;6.63;;;19.20;99.90;;;;;;5074877;28;20064;-68
2021/07/16 10:32:54;;;;;;;28.70;6.80;;;19.20;99.90;;;;;;5078864;28;21048;-68
2021/07/16 10:35:46;;;;;;;24.42;5.50;;;19.20;99.90;;;;;;5078663;28;20048;-68
2021/07/16 10:38:32;;;;;;;31.05;7.10;;;19.30;99.90;;;;;;5071546;28;20044;-69
2021/07/16 10:40:58;;;;;;;;;;;19.50;99.90;;;;;;5054066;28;20048;-68
2021/07/16 10:43:30;;;;;;;30.27;7.57;;;19.60;99.90;;;;;;5074350;28;19930;-69
2021/07/16 10:45:57;;;;;;;20.67;6.15;;;19.70;99.90;;;;;;5079270;28;20044;-69
2021/07/16 10:48:35;;;;;;;28.45;5.82;;;19.70;99.90;;;;;;5074152;28;20048;-68
2021/07/16 10:51:01;;;;;;;23.25;5.50;;;19.70;99.90;;;;;;5075976;28;20048;-68
2021/07/16 10:53:38;;;;;;;27.75;6.40;;;19.80;99.90;;;;;;5075837;28;20044;-69
2021/07/16 10:56:09;;;;;;;21.63;5.53;;;19.80;99.90;;;;;;5074826;28;20044;-69
2021/07/16 10:58:35;;;;;;;24.60;5.60;;;19.90;99.90;;;;;;5072770;28;20044;-68
2021/07/16 11:01:03;;;;;;;24.10;7.15;;;19.90;99.90;;;;;;5074111;28;20051;-68
2021/07/16 11:03:39;;;;;;;25.60;5.53;;;19.90;99.90;;;;;;5076543;28;20042;-68
2021/07/16 11:06:06;;;;;;;27.55;7.10;;;20.00;99.90;;;;;;5074881;28;20036;-69
2021/07/16 11:08:35;;;;;;;26.67;6.10;;;20.00;99.90;;;;;;5079876;28;20399;-69
2021/07/16 11:11:08;;;;;;;29.77;6.85;;;20.00;99.90;;;;;;5078389;28;20098;-68
2021/07/16 11:13:41;;;;;;;25.08;5.13;;;20.10;99.90;;;;;;5079976;28;20043;-69
2021/07/16 11:16:24;;;;;;;30.55;6.85;;;20.10;99.90;;;;;;5081928;28;20040;-68
2021/07/16 11:19:02;;;;;;;34.65;6.63;;;20.20;99.90;;;;;;5079211;28;20056;-68
2021/07/16 11:21:54;;;;;;;22.40;5.63;;;20.20;99.90;;;;;;5073634;28;20047;-68
2021/07/16 11:24:22;;;;;;;24.63;5.88;;;20.30;99.90;;;;;;5070709;28;20052;-68
2021/07/16 11:26:58;;;;;;;33.58;6.95;;;20.30;99.90;;;;;;5079000;28;20081;-68
2021/07/16 11:29:25;;;;;;;;;;;20.30;99.90;;;;;;5076321;28;20473;-69
2021/07/16 11:32:11;;;;;;;26.80;6.28;;;20.40;99.90;;;;;;5077421;28;19920;-68
2021/07/16 11:34:58;;;;;;;26.92;6.55;;;20.50;99.90;;;;;;5079037;28;22751;-68
2021/07/16 11:37:40;;;;;;;25.95;5.93;;;20.50;99.90;;;;;;5081544;28;20059;-68
2021/07/16 11:40:10;;;;;;;26.52;6.15;;;20.50;99.90;;;;;;5075308;28;20047;-69
2021/07/16 11:42:45;;;;;;;28.02;6.25;;;20.60;99.90;;;;;;5077348;28;20093;-69
2021/07/16 11:45:13;;;;;;;;;;;20.60;99.90;;;;;;5077178;28;22210;-69
2021/07/16 11:47:40;;;;;;;22.10;5.75;;;20.70;99.90;;;;;;5078460;28;19927;-69
2021/07/16 11:50:10;;;;;;;22.98;6.40;;;20.70;99.90;;;;;;5076470;28;20040;-69
2021/07/16 11:52:39;;;;;;;26.92;6.57;;;20.70;99.90;;;;;;5078594;28;20035;-69
2021/07/16 11:55:12;;;;;;;26.00;6.25;;;20.60;99.90;;;;;;5079115;28;20048;-69
2021/07/16 11:57:59;;;;;;;26.27;6.13;;;20.70;99.90;;;;;;5076463;28;20237;-70
2021/07/16 12:00:35;;;;;;;24.92;7.18;;;20.80;99.90;;;;;;5054601;28;20051;-67
2021/07/16 12:03:00;;;;;;;;;;;20.80;99.90;;;;;;5080999;28;20051;-67
2021/07/16 12:05:27;;;;;;;;;;;20.70;99.90;;;;;;5079801;28;19973;-67
2021/07/16 12:07:55;;;;;;;24.70;6.72;;;20.70;99.90;;;;;;5075866;28;19996;-68
2021/07/16 12:10:21;;;;;;;27.08;5.97;;;20.80;99.90;;;;;;5073760;28;20553;-68
2021/07/16 12:12:48;;;;;;;28.45;6.93;;;20.80;99.90;;;;;;5081805;28;20101;-68
2021/07/16 12:15:20;;;;;;;38.45;8.73;;;20.80;99.90;;;;;;5079007;28;20116;-68
2021/07/16 12:18:01;;;;;;;28.50;7.78;;;20.70;99.90;;;;;;5076631;28;20537;-68
2021/07/16 12:20:28;;;;;;;22.42;5.80;;;20.70;99.90;;;;;;5068758;28;20047;-67
2021/07/16 12:22:54;;;;;;;25.50;6.70;;;20.80;99.90;;;;;;5080261;28;20059;-67
2021/07/16 12:25:21;;;;;;;23.58;6.68;;;20.70;99.90;;;;;;5079827;28;20486;-67
2021/07/16 12:28:06;;;;;;;28.60;8.10;;;20.80;99.90;;;;;;5080008;28;20043;-67
2021/07/16 12:30:32;;;;;;;22.55;6.43;;;20.80;99.90;;;;;;5073688;28;20036;-67
2021/07/16 12:33:07;;;;;;;28.00;6.95;;;20.70;99.90;;;;;;5078375;28;20118;-67
2021/07/16 12:35:38;;;;;;;27.25;6.65;;;20.80;99.90;;;;;;5075935;28;20043;-67
2021/07/16 12:38:07;;;;;;;25.10;6.60;;;20.90;99.90;;;;;;5075206;28;20044;-67
2021/07/16 12:40:35;;;;;;;26.48;6.40;;;21.00;99.90;;;;;;5073219;28;20032;-68
2021/07/16 12:43:00;;;;;;;24.30;6.45;;;21.10;99.90;;;;;;5077843;28;20044;-68